This is the latest recevied weather packets stored in our database for station/object YT6PT-8. If no packets are shown the sender has not sent any weather packets the latest 10 day(s).
| Time | Temp. | Humidity | Pressure | Rain* | Wind** | Luminosity | Snow |
|---|---|---|---|---|---|---|---|
| 1788061255 | 17.78° C | 86% | 1008.2 hPa | 0 mm | 0 m/s | - | - |
| 1788060953 | 17.78° C | 86% | 1008.2 hPa | 0 mm | 0 m/s | - | - |
| 1788060633 | 18.89° C | 80% | 1008.5 hPa | 0 mm | 0 m/s | - | - |
| 1788060333 | 18.89° C | 80% | 1008.5 hPa | 0 mm | 0 m/s | - | - |
| 1788060038 | 18.89° C | 74% | 1008.5 hPa | 0 mm | 0.89 m/s, 225° | - | - |
| 1788059734 | 18.89° C | 74% | 1008.5 hPa | 0 mm | 0.89 m/s, 225° | - | - |
| 1788059432 | 19.44° C | 75% | 1008.2 hPa | 0 mm | 0 m/s | - | - |
| 1788059131 | 19.44° C | 75% | 1008.2 hPa | 0 mm | 0 m/s | - | - |
| 1788058834 | 19.44° C | 75% | 1008.3 hPa | 0 mm | 0.45 m/s, 225° | - | - |
| 1788058532 | 19.44° C | 75% | 1008.3 hPa | 0 mm | 0.45 m/s, 225° | - | - |
| 1788058234 | 19.44° C | 74% | 1008.3 hPa | 0 mm | 0.89 m/s, 225° | - | - |
| 1788057933 | 19.44° C | 74% | 1008.3 hPa | 0 mm | 0.89 m/s, 225° | - | - |
| 1788057632 | 19.44° C | 73% | 1008.2 hPa | 0 mm | 0 m/s | - | - |
| 1788057333 | 19.44° C | 73% | 1008.2 hPa | 0 mm | 0 m/s | - | - |
| 1788057031 | 19.44° C | 73% | 1008.2 hPa | 0 mm | 0 m/s | - | - |
| 1788056733 | 19.44° C | 73% | 1008.2 hPa | 0 mm | 0 m/s | - | - |
| 1788056437 | 18.89° C | 75% | 1008.2 hPa | 0 mm | 0 m/s | - | - |
| 1788056133 | 18.89° C | 75% | 1008.2 hPa | 0 mm | 0 m/s | - | - |
| 1788055834 | 17.78° C | 80% | 1008.3 hPa | 0 mm | 0.45 m/s, 202° | - | - |
| 1788055533 | 17.78° C | 80% | 1008.3 hPa | 0 mm | 0.45 m/s, 202° | - | - |
| 1788055233 | 16.67° C | 86% | 1008.1 hPa | 0 mm | 0 m/s | - | - |
| 1788054933 | 16.67° C | 86% | 1008.1 hPa | 0 mm | 0 m/s | - | - |
| 1788054651 | 17.22° C | 87% | 1008.1 hPa | 0 mm | 0 m/s | - | - |
| 1788054332 | 17.22° C | 87% | 1008.1 hPa | 0 mm | 0 m/s | - | - |
| 1788054033 | 17.78° C | 86% | 1008.4 hPa | 0 mm | 0 m/s | - | - |
* Rain latest hour (hover to see other rain measurements)
** Current wind speed in m/s (hover to see current wind gust speed)